createdAt,value
2022-10-11T00:01:40.474Z,92.06
2022-10-11T00:04:11.074Z,91.71
2022-10-11T00:06:41.692Z,91.74
2022-10-11T00:09:12.347Z,91.55
2022-10-11T00:11:42.907Z,92.23
2022-10-11T00:14:13.617Z,94.02
2022-10-11T00:16:44.171Z,93.97
2022-10-11T00:19:14.871Z,94.19
2022-10-11T00:21:45.413Z,94.18
2022-10-11T00:24:16.085Z,92.42
2022-10-11T00:26:47.127Z,91.86
2022-10-11T00:29:17.254Z,91.60
2022-10-11T00:31:47.890Z,91.03
2022-10-11T00:34:18.523Z,90.86
2022-10-11T00:36:49.159Z,90.93
2022-10-11T00:39:20.012Z,90.67
2022-10-11T00:41:50.664Z,90.98
2022-10-11T00:44:21.281Z,90.55
2022-10-11T00:46:54.956Z,91.43
2022-10-11T00:49:21.913Z,91.06
2022-10-11T00:51:52.318Z,91.35
2022-10-11T00:54:22.903Z,91.19
2022-10-11T00:56:53.572Z,91.24
2022-10-11T00:59:23.814Z,90.85
2022-10-11T01:01:54.477Z,90.97
2022-10-11T01:04:25.050Z,90.99
2022-10-11T01:06:55.761Z,90.71
2022-10-11T01:09:26.360Z,92.45
2022-10-11T01:11:57.004Z,93.78
2022-10-11T01:14:27.589Z,94.68
2022-10-11T01:16:58.262Z,93.76
2022-10-11T01:19:28.835Z,92.56
2022-10-11T01:21:59.471Z,92.08
2022-10-11T01:24:30.105Z,91.80
2022-10-11T01:27:00.782Z,91.12
2022-10-11T01:29:31.367Z,91.10
2022-10-11T01:32:02.053Z,90.75
2022-10-11T01:34:32.677Z,91.15
2022-10-11T01:37:03.282Z,91.23
2022-10-11T01:39:33.927Z,91.22
2022-10-11T01:42:04.681Z,90.76
2022-10-11T01:44:35.176Z,90.68
2022-10-11T01:47:05.818Z,90.40
2022-10-11T01:49:36.171Z,90.86
2022-10-11T01:52:06.801Z,91.71
2022-10-11T01:55:03.923Z,91.43
2022-10-11T01:57:08.081Z,90.91
2022-10-11T01:59:38.729Z,91.47
2022-10-11T02:02:09.370Z,90.77
2022-10-11T02:04:40.116Z,94.44
2022-10-11T02:07:10.658Z,93.91
2022-10-11T02:09:41.305Z,94.07
2022-10-11T02:12:11.663Z,92.29
2022-10-11T02:14:42.390Z,91.62
2022-10-11T02:17:12.970Z,91.57
2022-10-11T02:19:43.599Z,91.55
2022-10-11T02:22:14.254Z,91.33
2022-10-11T02:24:44.918Z,91.44
2022-10-11T02:27:15.559Z,91.55
2022-10-11T02:29:46.270Z,91.76
2022-10-11T02:32:16.870Z,91.44
2022-10-11T02:34:47.506Z,90.99
2022-10-11T02:37:18.176Z,90.72
2022-10-11T02:39:48.821Z,91.06
2022-10-11T02:42:19.551Z,90.75
2022-10-11T02:44:50.174Z,91.06
2022-10-11T02:47:20.787Z,90.60
2022-10-11T02:49:51.546Z,90.86
2022-10-11T02:52:22.070Z,90.29
2022-10-11T02:54:52.807Z,90.63
2022-10-11T02:57:23.372Z,90.65
2022-10-11T02:59:54.060Z,91.40
2022-10-11T03:02:24.692Z,91.94
2022-10-11T03:04:55.326Z,92.12
2022-10-11T03:07:25.980Z,92.41
2022-10-11T03:09:56.237Z,91.16
2022-10-11T03:12:26.879Z,90.60
2022-10-11T03:14:57.353Z,90.53
2022-10-11T03:17:36.180Z,90.33
2022-10-11T03:19:58.509Z,90.87
2022-10-11T03:22:29.164Z,90.99
2022-10-11T03:25:03.582Z,90.60
2022-10-11T03:27:30.430Z,91.14
2022-10-11T03:30:01.093Z,91.68
2022-10-11T03:32:31.466Z,91.26
2022-10-11T03:35:02.112Z,90.69
2022-10-11T03:37:32.760Z,90.80
2022-10-11T03:40:03.415Z,91.00
2022-10-11T03:42:34.077Z,91.39
2022-10-11T03:45:04.771Z,91.18
2022-10-11T03:47:35.442Z,91.09
2022-10-11T03:50:06.105Z,92.06
2022-10-11T03:52:36.807Z,91.74
2022-10-11T03:55:07.468Z,92.61
2022-10-11T03:57:37.808Z,91.84
2022-10-11T04:00:08.482Z,93.10
2022-10-11T04:02:39.462Z,92.81
2022-10-11T04:05:09.859Z,93.68
2022-10-11T04:07:40.515Z,92.19
2022-10-11T04:10:11.186Z,91.30
2022-10-11T04:12:41.984Z,91.27
2022-10-11T04:15:14.760Z,91.55
2022-10-11T04:17:43.214Z,91.64
2022-10-11T04:20:13.579Z,91.41
2022-10-11T04:22:44.260Z,91.69
2022-10-11T04:25:14.640Z,95.86
2022-10-11T04:27:44.939Z,93.14
2022-10-11T04:30:15.637Z,92.37
2022-10-11T04:32:46.288Z,91.90
2022-10-11T04:35:16.955Z,91.76
2022-10-11T04:37:47.642Z,91.87
2022-10-11T04:40:18.416Z,91.58
2022-10-11T04:42:48.988Z,91.36
2022-10-11T04:45:19.653Z,91.52
2022-10-11T04:47:50.371Z,91.00
2022-10-11T04:50:21.019Z,91.18
2022-10-11T04:52:51.713Z,91.18
2022-10-11T04:55:22.127Z,90.62
2022-10-11T04:57:52.818Z,91.10
2022-10-11T05:00:23.568Z,90.03
2022-10-11T05:02:54.370Z,90.70
2022-10-11T05:05:25.155Z,90.97
2022-10-11T05:07:56.002Z,90.66
2022-10-11T05:10:26.502Z,92.19
2022-10-11T05:12:56.886Z,92.28
2022-10-11T05:15:27.471Z,92.49
2022-10-11T05:17:57.868Z,91.59
2022-10-11T05:20:28.577Z,91.14
2022-10-11T05:22:59.253Z,90.96
2022-10-11T05:25:29.935Z,90.94
2022-10-11T05:28:00.624Z,90.44
2022-10-11T05:30:31.281Z,90.74
2022-10-11T05:33:02.089Z,90.58
2022-10-11T05:35:32.643Z,90.82
2022-10-11T05:38:03.361Z,90.62
2022-10-11T05:40:34.028Z,90.51
2022-10-11T05:43:04.737Z,90.44
2022-10-11T05:45:35.449Z,90.38
2022-10-11T05:48:06.128Z,90.30
2022-10-11T05:50:36.828Z,89.72
2022-10-11T05:53:07.495Z,90.49
2022-10-11T05:55:38.165Z,90.51
2022-10-11T05:58:08.871Z,90.20
2022-10-11T06:00:39.570Z,90.78
2022-10-11T06:03:10.293Z,90.30
2022-10-11T06:05:40.960Z,91.25
2022-10-11T06:08:11.660Z,91.34
2022-10-11T06:10:42.342Z,90.95
2022-10-11T06:13:13.124Z,91.39
2022-10-11T06:15:43.723Z,92.19
2022-10-11T06:18:14.423Z,92.46
2022-10-11T06:20:45.106Z,92.35
2022-10-11T06:23:15.799Z,92.85
2022-10-11T06:25:46.480Z,92.06
2022-10-11T06:28:17.245Z,92.10
2022-10-11T06:30:47.850Z,92.08
2022-10-11T06:33:18.600Z,91.89
2022-10-11T06:35:49.234Z,91.57
2022-10-11T06:38:19.931Z,91.86
2022-10-11T06:40:50.609Z,91.24
2022-10-11T06:43:21.376Z,91.89
2022-10-11T06:45:51.982Z,93.16
2022-10-11T06:48:22.700Z,91.65
2022-10-11T06:51:00.053Z,92.23
2022-10-11T06:53:23.989Z,92.24
2022-10-11T06:55:54.661Z,91.68
2022-10-11T06:58:25.426Z,91.69
2022-10-11T07:00:56.129Z,92.07
2022-10-11T07:03:26.664Z,91.80
2022-10-11T07:06:02.114Z,91.92
2022-10-11T07:08:28.001Z,91.86
2022-10-11T07:10:58.671Z,93.32
2022-10-11T07:13:29.335Z,96.08
2022-10-11T07:16:00.278Z,95.87
2022-10-11T07:18:30.667Z,97.30
2022-10-11T07:21:01.321Z,95.13
2022-10-11T07:23:31.977Z,95.81
2022-10-11T07:26:03.028Z,94.63
2022-10-11T07:28:33.416Z,94.91
2022-10-11T07:31:03.984Z,95.09
2022-10-11T07:33:34.623Z,95.63
2022-10-11T07:36:05.214Z,94.84
2022-10-11T07:38:35.349Z,95.41
2022-10-11T07:41:06.023Z,95.15
2022-10-11T07:43:36.697Z,95.36
2022-10-11T07:46:07.940Z,96.29
2022-10-11T07:48:38.046Z,96.33
2022-10-11T07:51:08.809Z,95.64
2022-10-11T07:53:39.081Z,95.63
2022-10-11T07:56:09.757Z,96.12
2022-10-11T07:58:40.064Z,96.98
2022-10-11T08:01:10.886Z,97.05
2022-10-11T08:03:41.396Z,98.44
2022-10-11T08:06:12.055Z,96.02
2022-10-11T08:08:42.649Z,95.99
2022-10-11T08:11:13.355Z,95.72
2022-10-11T08:13:43.921Z,95.95
2022-10-11T08:16:14.562Z,95.79
2022-10-11T08:18:45.187Z,95.82
2022-10-11T08:21:15.917Z,95.76
2022-10-11T08:23:46.513Z,95.56
2022-10-11T08:26:17.107Z,95.69
2022-10-11T08:28:47.772Z,95.03
2022-10-11T08:31:18.320Z,95.47
2022-10-11T08:33:48.937Z,94.74
2022-10-11T08:36:19.566Z,94.97
2022-10-11T08:38:50.134Z,94.96
2022-10-11T08:41:20.776Z,96.77
2022-10-11T08:43:51.336Z,97.02
2022-10-11T08:46:21.952Z,96.43
2022-10-11T08:48:52.631Z,96.11
2022-10-11T08:51:23.235Z,95.64
2022-10-11T08:53:53.726Z,95.93
2022-10-11T08:56:24.313Z,95.36
2022-10-11T08:58:54.934Z,95.43
2022-10-11T09:01:25.583Z,95.76
2022-10-11T09:03:56.078Z,94.55
2022-10-11T09:06:26.741Z,94.86
2022-10-11T09:08:57.264Z,95.12
2022-10-11T09:11:27.817Z,95.61
2022-10-11T09:13:58.389Z,95.27
2022-10-11T09:16:29.125Z,95.55
2022-10-11T09:18:59.556Z,95.35
2022-10-11T09:21:30.127Z,96.34
2022-10-11T09:24:00.821Z,96.52
2022-10-11T09:26:30.981Z,95.99
2022-10-11T09:29:01.739Z,95.87
2022-10-11T09:31:32.136Z,95.31
2022-10-11T09:34:02.774Z,95.26
2022-10-11T09:36:33.341Z,95.58
2022-10-11T09:39:06.644Z,95.08
2022-10-11T09:41:34.352Z,94.00
2022-10-11T09:44:04.869Z,94.05
2022-10-11T09:46:35.415Z,92.89
2022-10-11T09:49:05.971Z,93.71
2022-10-11T09:51:36.506Z,93.41
2022-10-11T09:54:07.058Z,93.45
2022-10-11T09:56:37.595Z,93.22
2022-10-11T09:59:08.147Z,93.39
2022-10-11T10:01:38.817Z,93.79
2022-10-11T10:04:09.343Z,94.10
2022-10-11T10:06:39.862Z,93.57
2022-10-11T10:09:10.260Z,93.12
2022-10-11T10:11:40.769Z,92.59
2022-10-11T10:14:11.341Z,91.05
2022-10-11T10:16:41.832Z,91.69
2022-10-11T10:19:12.339Z,91.28
2022-10-11T10:21:42.854Z,91.12
2022-10-11T10:24:13.389Z,91.19
2022-10-11T10:26:43.913Z,91.15
2022-10-11T10:29:14.414Z,91.34
2022-10-11T10:32:12.342Z,91.00
2022-10-11T10:34:15.432Z,90.01
2022-10-11T10:36:46.056Z,89.84
2022-10-11T10:39:16.413Z,90.94
2022-10-11T10:41:46.880Z,90.49
2022-10-11T10:44:17.346Z,87.47
2022-10-11T10:46:47.936Z,88.42
2022-10-11T10:49:41.633Z,88.63
2022-10-11T10:51:48.769Z,85.53
2022-10-11T10:54:19.238Z,86.35
2022-10-11T10:56:49.707Z,86.30
2022-10-11T10:59:20.167Z,85.50
2022-10-11T11:01:50.752Z,87.38
2022-10-11T11:04:21.107Z,86.56
2022-10-11T11:06:51.791Z,85.88
2022-10-11T11:09:21.902Z,84.32
2022-10-11T11:11:52.090Z,83.43
2022-10-11T11:14:22.530Z,83.78
2022-10-11T11:16:53.045Z,83.31
2022-10-11T11:19:23.573Z,82.50
2022-10-11T11:21:54.088Z,82.17
2022-10-11T11:24:24.626Z,81.17
2022-10-11T11:26:55.081Z,82.61
2022-10-11T11:29:25.594Z,81.33
2022-10-11T11:31:56.012Z,82.33
2022-10-11T11:34:26.495Z,83.26
2022-10-11T11:36:56.940Z,82.44
2022-10-11T11:39:27.446Z,81.88
2022-10-11T11:41:57.852Z,82.71
2022-10-11T11:44:28.341Z,81.73
2022-10-11T11:46:58.767Z,80.81
2022-10-11T11:49:29.190Z,80.10
2022-10-11T11:51:59.634Z,80.68
2022-10-11T11:54:29.798Z,79.85
2022-10-11T11:57:00.254Z,79.54
2022-10-11T11:59:30.694Z,80.72
2022-10-11T12:02:01.286Z,81.54
2022-10-11T12:04:31.563Z,81.86
2022-10-11T12:07:15.847Z,82.76
2022-10-11T12:09:32.471Z,82.10
2022-10-11T12:12:02.925Z,80.41
2022-10-11T12:14:33.381Z,81.23
2022-10-11T12:17:03.803Z,80.13
2022-10-11T12:19:34.260Z,80.67
2022-10-11T12:22:04.750Z,81.28
2022-10-11T12:24:35.163Z,80.92
2022-10-11T12:27:05.608Z,78.68
2022-10-11T12:29:36.135Z,81.11
2022-10-11T12:32:06.541Z,80.61
2022-10-11T12:34:37.053Z,80.09
2022-10-11T12:37:07.444Z,81.14
2022-10-11T12:39:37.808Z,80.86
2022-10-11T12:42:08.255Z,79.85
2022-10-11T12:44:38.706Z,80.27
2022-10-11T12:47:09.152Z,79.37
2022-10-11T12:49:39.571Z,80.49
2022-10-11T12:52:10.082Z,79.68
2022-10-11T12:54:40.451Z,77.31
2022-10-11T12:57:12.376Z,77.35
2022-10-11T12:59:41.316Z,77.62
2022-10-11T13:02:11.752Z,77.93
2022-10-11T13:04:42.171Z,76.95
2022-10-11T13:07:12.663Z,78.69
2022-10-11T13:09:46.719Z,78.98
2022-10-11T13:12:13.281Z,78.70
2022-10-11T13:14:43.618Z,78.54
2022-10-11T13:17:14.040Z,78.62
2022-10-11T13:19:44.447Z,77.74
2022-10-11T13:22:14.862Z,77.35
2022-10-11T13:24:45.303Z,77.24
2022-10-11T13:27:15.672Z,77.43
2022-10-11T13:29:46.079Z,78.44
2022-10-11T13:32:16.556Z,77.94
2022-10-11T13:34:47.014Z,78.31
2022-10-11T13:37:17.423Z,75.64
2022-10-11T13:39:47.751Z,74.31
2022-10-11T13:42:18.148Z,76.34
2022-10-11T13:44:48.554Z,75.93
2022-10-11T13:47:19.034Z,75.99
2022-10-11T13:49:49.403Z,77.32
2022-10-11T13:52:19.843Z,73.81
2022-10-11T13:54:50.134Z,75.30
2022-10-11T13:57:20.523Z,76.04
2022-10-11T13:59:50.926Z,75.80
2022-10-11T14:02:21.325Z,75.95
2022-10-11T14:04:51.717Z,75.63
2022-10-11T14:07:22.131Z,76.81
2022-10-11T14:09:52.517Z,76.66
2022-10-11T14:12:22.905Z,75.29
2022-10-11T14:14:53.296Z,75.09
2022-10-11T14:17:23.804Z,73.77
2022-10-11T14:19:54.091Z,75.34
2022-10-11T14:22:24.440Z,75.26
2022-10-11T14:24:54.811Z,74.76
2022-10-11T14:27:25.207Z,76.07
2022-10-11T14:30:20.150Z,76.04
2022-10-11T14:32:25.983Z,76.08
2022-10-11T14:34:56.333Z,74.34
2022-10-11T14:37:26.714Z,76.92
2022-10-11T14:39:57.111Z,75.03
2022-10-11T14:42:27.514Z,74.31
2022-10-11T14:44:57.894Z,72.78
2022-10-11T14:47:28.315Z,73.77
2022-10-11T14:49:58.652Z,73.73
2022-10-11T14:52:29.063Z,73.63
2022-10-11T14:54:59.434Z,73.73
2022-10-11T14:57:29.847Z,73.58
2022-10-11T15:00:00.235Z,73.80
2022-10-11T15:02:30.612Z,74.79
2022-10-11T15:05:00.990Z,74.85
2022-10-11T15:07:31.401Z,74.05
2022-10-11T15:10:01.813Z,73.87
2022-10-11T15:12:32.168Z,75.04
2022-10-11T15:15:02.584Z,74.26
2022-10-11T15:17:32.958Z,73.27
2022-10-11T15:20:03.325Z,75.29
2022-10-11T15:22:33.709Z,75.30
2022-10-11T15:25:04.098Z,74.92
2022-10-11T15:27:34.520Z,74.43
2022-10-11T15:30:04.892Z,74.90
2022-10-11T15:32:35.330Z,75.61
2022-10-11T15:35:05.814Z,73.68
2022-10-11T15:37:37.470Z,75.05
2022-10-11T15:40:06.489Z,75.15
2022-10-11T15:42:36.885Z,75.43
2022-10-11T15:45:07.286Z,75.27
2022-10-11T15:47:37.676Z,75.87
2022-10-11T15:50:08.062Z,75.70
2022-10-11T15:52:38.463Z,75.81
2022-10-11T15:55:08.841Z,76.13
2022-10-11T15:57:39.345Z,76.39
2022-10-11T16:00:09.675Z,76.78
2022-10-11T16:02:40.055Z,77.10
2022-10-11T16:05:10.429Z,77.05
2022-10-11T16:07:40.828Z,77.22
2022-10-11T16:10:11.221Z,77.62
2022-10-11T16:12:41.757Z,77.50
2022-10-11T16:15:12.138Z,78.00
2022-10-11T16:17:42.447Z,77.91
2022-10-11T16:20:12.831Z,77.75
2022-10-11T16:22:43.324Z,78.00
2022-10-11T16:25:13.643Z,78.29
2022-10-11T16:27:44.168Z,78.64
2022-10-11T16:30:14.583Z,78.85
2022-10-11T16:32:44.897Z,79.16
2022-10-11T16:35:15.337Z,79.82
2022-10-11T16:37:45.743Z,80.17
2022-10-11T16:40:16.167Z,80.05
2022-10-11T16:42:46.593Z,80.14
2022-10-11T16:45:17.018Z,80.28
2022-10-11T16:47:47.460Z,80.78
2022-10-11T16:50:17.855Z,81.16
2022-10-11T16:52:48.296Z,81.25
2022-10-11T16:55:18.742Z,81.44
2022-10-11T16:57:49.171Z,81.28
2022-10-11T17:00:19.599Z,80.97
2022-10-11T17:02:50.152Z,81.39
2022-10-11T17:05:20.462Z,81.52
2022-10-11T17:07:50.990Z,81.64
2022-10-11T17:10:21.380Z,81.41
2022-10-11T17:12:51.828Z,81.78
2022-10-11T17:15:22.300Z,81.87
2022-10-11T17:17:52.770Z,81.87
2022-10-11T17:20:23.148Z,82.27
2022-10-11T17:22:53.653Z,82.10
2022-10-11T17:25:24.230Z,82.12
2022-10-11T17:27:54.706Z,82.52
2022-10-11T17:30:24.935Z,82.77
2022-10-11T17:32:55.265Z,83.12
2022-10-11T17:35:26.136Z,83.53
2022-10-11T17:37:57.086Z,83.13
2022-10-11T17:40:27.167Z,82.87
2022-10-11T17:42:57.622Z,82.61
2022-10-11T17:45:28.085Z,82.77
2022-10-11T17:47:58.393Z,82.87
2022-10-11T17:50:28.638Z,82.99
2022-10-11T17:52:58.991Z,82.88
2022-10-11T17:55:29.680Z,83.09
2022-10-11T17:57:59.804Z,82.95
2022-10-11T18:00:29.805Z,83.03
2022-10-11T18:03:00.326Z,83.57
2022-10-11T18:05:30.850Z,83.22
2022-10-11T18:08:01.559Z,83.49
2022-10-11T18:10:31.617Z,84.05
2022-10-11T18:13:06.338Z,84.06
2022-10-11T18:15:32.814Z,84.23
2022-10-11T18:18:03.295Z,84.14
2022-10-11T18:20:33.851Z,83.91
2022-10-11T18:23:04.770Z,83.71
2022-10-11T18:25:35.500Z,83.69
2022-10-11T18:28:06.341Z,83.89
2022-10-11T18:30:36.579Z,83.77
2022-10-11T18:33:06.775Z,83.57
2022-10-11T18:35:37.174Z,83.50
2022-10-11T18:38:07.539Z,83.63
2022-10-11T18:40:39.620Z,83.51
2022-10-11T18:43:09.173Z,83.53
2022-10-11T18:45:39.558Z,83.29
2022-10-11T18:48:10.092Z,83.04
2022-10-11T18:50:40.900Z,83.43
2022-10-11T18:53:11.651Z,83.91
2022-10-11T18:55:41.712Z,84.10
2022-10-11T18:58:11.920Z,84.14
2022-10-11T19:00:42.106Z,83.78
2022-10-11T19:03:12.828Z,84.02
2022-10-11T19:05:43.090Z,88.91
2022-10-11T19:08:13.461Z,86.24
2022-10-11T19:10:43.625Z,85.40
2022-10-11T19:13:13.767Z,85.16
2022-10-11T19:15:44.405Z,84.77
2022-10-11T19:18:18.290Z,84.74
2022-10-11T19:20:45.160Z,84.34
2022-10-11T19:23:15.636Z,84.56
2022-10-11T19:25:46.080Z,84.58
2022-10-11T19:28:16.575Z,84.55
2022-10-11T19:30:47.084Z,84.72
2022-10-11T19:33:17.396Z,84.70
2022-10-11T19:35:47.879Z,84.70
2022-10-11T19:38:18.516Z,84.68
2022-10-11T19:40:49.057Z,84.73
2022-10-11T19:43:19.593Z,84.58
2022-10-11T19:45:50.119Z,84.48
2022-10-11T19:48:20.697Z,84.74
2022-10-11T19:50:51.261Z,85.00
2022-10-11T19:53:21.753Z,84.78
2022-10-11T19:55:52.329Z,84.68
2022-10-11T19:58:22.879Z,84.87
2022-10-11T20:00:53.488Z,84.64
2022-10-11T20:03:24.017Z,84.81
2022-10-11T20:05:54.601Z,84.54
2022-10-11T20:08:25.139Z,84.77
2022-10-11T20:10:55.421Z,84.77
2022-10-11T20:13:25.926Z,84.75
2022-10-11T20:15:56.538Z,84.84
2022-10-11T20:18:27.134Z,84.79
2022-10-11T20:20:57.662Z,84.68
2022-10-11T20:23:28.325Z,84.53
2022-10-11T20:25:58.799Z,84.41
2022-10-11T20:28:29.434Z,84.48
2022-10-11T20:30:59.986Z,84.64
2022-10-11T20:33:30.639Z,85.07
2022-10-11T20:36:00.945Z,85.55
2022-10-11T20:38:31.501Z,86.15
2022-10-11T20:41:02.135Z,85.57
2022-10-11T20:43:32.738Z,85.47
2022-10-11T20:46:03.350Z,85.51
2022-10-11T20:48:33.961Z,85.47
2022-10-11T20:51:04.570Z,85.62
2022-10-11T20:53:34.925Z,85.72
2022-10-11T20:56:05.522Z,85.91
2022-10-11T20:58:36.268Z,85.75
2022-10-11T21:01:06.780Z,85.58
2022-10-11T21:03:37.391Z,84.91
2022-10-11T21:06:07.718Z,84.56
2022-10-11T21:08:38.270Z,84.96
2022-10-11T21:11:08.907Z,84.89
2022-10-11T21:13:39.506Z,84.97
2022-10-11T21:16:09.857Z,84.98
2022-10-11T21:18:40.509Z,85.04
2022-10-11T21:21:11.152Z,85.64
2022-10-11T21:23:41.828Z,86.01
2022-10-11T21:26:12.425Z,86.43
2022-10-11T21:28:43.044Z,86.06
2022-10-11T21:31:13.651Z,85.81
2022-10-11T21:33:44.284Z,85.88
2022-10-11T21:36:14.896Z,86.01
2022-10-11T21:38:45.525Z,85.74
2022-10-11T21:41:16.211Z,85.38
2022-10-11T21:43:46.818Z,85.10
2022-10-11T21:46:17.448Z,85.25
2022-10-11T21:48:48.211Z,85.67
2022-10-11T21:51:18.737Z,85.99
2022-10-11T21:53:49.423Z,86.77
2022-10-11T21:56:20.148Z,86.50
2022-10-11T21:58:50.165Z,86.62
2022-10-11T22:01:20.817Z,86.51
2022-10-11T22:03:51.423Z,86.00
2022-10-11T22:06:21.797Z,85.92
2022-10-11T22:08:52.442Z,86.03
2022-10-11T22:11:23.147Z,86.18
2022-10-11T22:13:53.767Z,86.30
2022-10-11T22:16:24.156Z,86.63
2022-10-11T22:18:54.485Z,86.98
2022-10-11T22:21:25.135Z,86.90
2022-10-11T22:23:55.867Z,86.52
2022-10-11T22:26:26.198Z,86.52
2022-10-11T22:28:56.966Z,86.46
2022-10-11T22:31:27.219Z,86.55
2022-10-11T22:33:57.891Z,86.75
2022-10-11T22:36:28.499Z,86.02
2022-10-11T22:38:59.176Z,85.92
2022-10-11T22:41:29.801Z,85.89
2022-10-11T22:44:00.472Z,85.55
2022-10-11T22:46:31.133Z,85.63
2022-10-11T22:49:01.445Z,85.01
2022-10-11T22:51:32.085Z,85.58
2022-10-11T22:54:02.697Z,85.45
2022-10-11T22:56:33.083Z,85.21
2022-10-11T22:59:03.482Z,85.62
2022-10-11T23:01:33.780Z,84.46
2022-10-11T23:04:04.276Z,84.83
2022-10-11T23:06:34.869Z,85.47
2022-10-11T23:09:05.486Z,85.72
2022-10-11T23:11:36.226Z,85.73
2022-10-11T23:14:06.261Z,86.18
2022-10-11T23:16:36.678Z,85.91
2022-10-11T23:19:07.390Z,86.37
2022-10-11T23:21:38.078Z,86.90
2022-10-11T23:24:08.713Z,87.13
2022-10-11T23:26:39.261Z,87.43
2022-10-11T23:29:10.040Z,86.56
2022-10-11T23:31:40.769Z,86.17
2022-10-11T23:34:10.878Z,86.25
2022-10-11T23:36:41.322Z,86.38
2022-10-11T23:39:11.920Z,86.41
2022-10-11T23:41:42.173Z,86.33
2022-10-11T23:44:12.764Z,86.47
2022-10-11T23:46:43.118Z,86.11
2022-10-11T23:49:13.564Z,86.15
2022-10-11T23:51:44.261Z,86.13
2022-10-11T23:54:14.661Z,86.06
2022-10-11T23:56:45.350Z,86.03
2022-10-11T23:59:15.632Z,85.93
